sensor_id;sensor_type;location;lat;lon;timestamp;P1;durP1;ratioP1;P2;durP2;ratioP2
17361;SDS011;8798;51.938;4.348;2023-05-20T00:01:35;3.73;;;1.93;;
17361;SDS011;8798;51.938;4.348;2023-05-20T00:04:03;6.07;;;2.20;;
17361;SDS011;8798;51.938;4.348;2023-05-20T00:06:31;6.07;;;2.10;;
17361;SDS011;8798;51.938;4.348;2023-05-20T00:09:00;4.13;;;2.13;;
17361;SDS011;8798;51.938;4.348;2023-05-20T00:11:28;5.07;;;2.20;;
17361;SDS011;8798;51.938;4.348;2023-05-20T00:13:56;8.10;;;2.20;;
17361;SDS011;8798;51.938;4.348;2023-05-20T00:16:24;6.10;;;2.40;;
17361;SDS011;8798;51.938;4.348;2023-05-20T00:18:53;6.67;;;2.30;;
17361;SDS011;8798;51.938;4.348;2023-05-20T00:21:22;4.70;;;2.20;;
17361;SDS011;8798;51.938;4.348;2023-05-20T00:23:50;5.77;;;2.40;;
17361;SDS011;8798;51.938;4.348;2023-05-20T00:26:18;4.60;;;2.10;;
17361;SDS011;8798;51.938;4.348;2023-05-20T00:28:46;8.43;;;2.27;;
17361;SDS011;8798;51.938;4.348;2023-05-20T00:31:14;9.03;;;2.50;;
17361;SDS011;8798;51.938;4.348;2023-05-20T00:33:42;4.73;;;2.17;;
17361;SDS011;8798;51.938;4.348;2023-05-20T00:36:11;5.60;;;2.03;;
17361;SDS011;8798;51.938;4.348;2023-05-20T00:38:39;5.20;;;2.30;;
17361;SDS011;8798;51.938;4.348;2023-05-20T00:41:07;6.37;;;2.40;;
17361;SDS011;8798;51.938;4.348;2023-05-20T00:43:35;8.53;;;2.20;;
17361;SDS011;8798;51.938;4.348;2023-05-20T00:46:02;6.87;;;2.30;;
17361;SDS011;8798;51.938;4.348;2023-05-20T00:48:31;6.73;;;2.27;;
17361;SDS011;8798;51.938;4.348;2023-05-20T00:51:06;6.37;;;2.13;;
17361;SDS011;8798;51.938;4.348;2023-05-20T00:53:35;4.77;;;2.30;;
17361;SDS011;8798;51.938;4.348;2023-05-20T00:56:03;6.23;;;2.40;;
17361;SDS011;8798;51.938;4.348;2023-05-20T00:58:33;4.37;;;2.23;;
17361;SDS011;8798;51.938;4.348;2023-05-20T01:01:01;6.37;;;2.50;;
17361;SDS011;8798;51.938;4.348;2023-05-20T01:03:29;6.47;;;2.60;;
17361;SDS011;8798;51.938;4.348;2023-05-20T01:05:58;9.80;;;2.50;;
17361;SDS011;8798;51.938;4.348;2023-05-20T01:08:26;6.77;;;2.13;;
17361;SDS011;8798;51.938;4.348;2023-05-20T01:10:57;5.13;;;2.20;;
17361;SDS011;8798;51.938;4.348;2023-05-20T01:13:32;5.57;;;2.23;;
17361;SDS011;8798;51.938;4.348;2023-05-20T01:16:03;5.27;;;2.20;;
17361;SDS011;8798;51.938;4.348;2023-05-20T01:18:33;6.60;;;2.43;;
17361;SDS011;8798;51.938;4.348;2023-05-20T01:21:02;8.20;;;2.30;;
17361;SDS011;8798;51.938;4.348;2023-05-20T01:23:33;6.97;;;2.13;;
17361;SDS011;8798;51.938;4.348;2023-05-20T01:26:04;6.37;;;2.30;;
17361;SDS011;8798;51.938;4.348;2023-05-20T01:28:32;4.93;;;2.33;;
17361;SDS011;8798;51.938;4.348;2023-05-20T01:31:01;5.37;;;2.70;;
17361;SDS011;8798;51.938;4.348;2023-05-20T01:33:32;6.93;;;2.43;;
17361;SDS011;8798;51.938;4.348;2023-05-20T01:36:02;5.40;;;2.40;;
17361;SDS011;8798;51.938;4.348;2023-05-20T01:38:33;6.97;;;2.40;;
17361;SDS011;8798;51.938;4.348;2023-05-20T01:41:03;6.73;;;2.13;;
17361;SDS011;8798;51.938;4.348;2023-05-20T01:43:32;5.67;;;2.63;;
17361;SDS011;8798;51.938;4.348;2023-05-20T01:46:00;3.67;;;2.23;;
17361;SDS011;8798;51.938;4.348;2023-05-20T01:48:31;6.47;;;2.67;;
17361;SDS011;8798;51.938;4.348;2023-05-20T01:50:59;6.67;;;2.10;;
17361;SDS011;8798;51.938;4.348;2023-05-20T01:53:28;7.40;;;2.60;;
17361;SDS011;8798;51.938;4.348;2023-05-20T01:55:57;7.00;;;2.90;;
17361;SDS011;8798;51.938;4.348;2023-05-20T01:58:25;5.67;;;2.77;;
17361;SDS011;8798;51.938;4.348;2023-05-20T02:00:53;6.73;;;2.67;;
17361;SDS011;8798;51.938;4.348;2023-05-20T02:03:21;5.50;;;2.53;;
17361;SDS011;8798;51.938;4.348;2023-05-20T02:05:49;5.37;;;2.70;;
17361;SDS011;8798;51.938;4.348;2023-05-20T02:08:17;5.03;;;2.23;;
17361;SDS011;8798;51.938;4.348;2023-05-20T02:10:46;4.67;;;2.50;;
17361;SDS011;8798;51.938;4.348;2023-05-20T02:13:15;7.37;;;2.70;;
17361;SDS011;8798;51.938;4.348;2023-05-20T02:15:43;6.17;;;2.60;;
17361;SDS011;8798;51.938;4.348;2023-05-20T02:18:13;7.63;;;2.87;;
17361;SDS011;8798;51.938;4.348;2023-05-20T02:20:44;8.07;;;2.90;;
17361;SDS011;8798;51.938;4.348;2023-05-20T02:23:12;8.67;;;2.77;;
17361;SDS011;8798;51.938;4.348;2023-05-20T02:25:39;3.37;;;2.30;;
17361;SDS011;8798;51.938;4.348;2023-05-20T02:28:07;8.47;;;2.63;;
17361;SDS011;8798;51.938;4.348;2023-05-20T02:30:37;8.73;;;2.90;;
17361;SDS011;8798;51.938;4.348;2023-05-20T02:33:05;7.23;;;2.73;;
17361;SDS011;8798;51.938;4.348;2023-05-20T02:35:35;7.37;;;2.83;;
17361;SDS011;8798;51.938;4.348;2023-05-20T02:38:03;7.57;;;2.83;;
17361;SDS011;8798;51.938;4.348;2023-05-20T02:40:30;7.40;;;3.07;;
17361;SDS011;8798;51.938;4.348;2023-05-20T02:42:58;6.30;;;2.90;;
17361;SDS011;8798;51.938;4.348;2023-05-20T02:45:27;6.27;;;3.10;;
17361;SDS011;8798;51.938;4.348;2023-05-20T02:47:56;5.17;;;2.53;;
17361;SDS011;8798;51.938;4.348;2023-05-20T02:50:24;7.53;;;3.13;;
17361;SDS011;8798;51.938;4.348;2023-05-20T02:52:52;8.57;;;2.80;;
17361;SDS011;8798;51.938;4.348;2023-05-20T02:55:21;6.67;;;2.83;;
17361;SDS011;8798;51.938;4.348;2023-05-20T02:57:49;9.27;;;2.80;;
17361;SDS011;8798;51.938;4.348;2023-05-20T03:00:17;5.47;;;2.40;;
17361;SDS011;8798;51.938;4.348;2023-05-20T03:02:45;7.57;;;2.73;;
17361;SDS011;8798;51.938;4.348;2023-05-20T03:05:14;8.10;;;2.80;;
17361;SDS011;8798;51.938;4.348;2023-05-20T03:07:42;8.63;;;3.00;;
17361;SDS011;8798;51.938;4.348;2023-05-20T03:10:11;7.80;;;2.80;;
17361;SDS011;8798;51.938;4.348;2023-05-20T03:12:39;6.77;;;2.77;;
17361;SDS011;8798;51.938;4.348;2023-05-20T03:15:07;8.17;;;2.77;;
17361;SDS011;8798;51.938;4.348;2023-05-20T03:17:36;7.10;;;2.53;;
17361;SDS011;8798;51.938;4.348;2023-05-20T03:20:04;5.07;;;2.57;;
17361;SDS011;8798;51.938;4.348;2023-05-20T03:22:34;6.73;;;2.90;;
17361;SDS011;8798;51.938;4.348;2023-05-20T03:25:02;6.83;;;2.47;;
17361;SDS011;8798;51.938;4.348;2023-05-20T03:27:31;6.97;;;2.80;;
17361;SDS011;8798;51.938;4.348;2023-05-20T03:29:59;3.60;;;2.67;;
17361;SDS011;8798;51.938;4.348;2023-05-20T03:32:27;7.17;;;2.90;;
17361;SDS011;8798;51.938;4.348;2023-05-20T03:34:55;7.60;;;2.53;;
17361;SDS011;8798;51.938;4.348;2023-05-20T03:37:23;8.27;;;2.70;;
17361;SDS011;8798;51.938;4.348;2023-05-20T03:39:52;4.37;;;2.43;;
17361;SDS011;8798;51.938;4.348;2023-05-20T03:42:20;6.83;;;2.30;;
17361;SDS011;8798;51.938;4.348;2023-05-20T03:44:48;6.53;;;2.77;;
17361;SDS011;8798;51.938;4.348;2023-05-20T03:47:16;5.10;;;2.67;;
17361;SDS011;8798;51.938;4.348;2023-05-20T03:49:43;4.00;;;2.90;;
17361;SDS011;8798;51.938;4.348;2023-05-20T03:52:11;5.27;;;2.77;;
17361;SDS011;8798;51.938;4.348;2023-05-20T03:54:39;10.77;;;3.07;;
17361;SDS011;8798;51.938;4.348;2023-05-20T03:57:08;5.00;;;2.90;;
17361;SDS011;8798;51.938;4.348;2023-05-20T03:59:36;10.57;;;3.17;;
17361;SDS011;8798;51.938;4.348;2023-05-20T04:02:04;4.67;;;2.90;;
17361;SDS011;8798;51.938;4.348;2023-05-20T04:04:32;5.03;;;2.70;;
17361;SDS011;8798;51.938;4.348;2023-05-20T04:07:00;5.33;;;2.43;;
17361;SDS011;8798;51.938;4.348;2023-05-20T04:09:28;7.50;;;2.60;;
17361;SDS011;8798;51.938;4.348;2023-05-20T04:11:56;4.40;;;2.50;;
17361;SDS011;8798;51.938;4.348;2023-05-20T04:14:25;5.50;;;2.50;;
17361;SDS011;8798;51.938;4.348;2023-05-20T04:16:53;6.93;;;2.87;;
17361;SDS011;8798;51.938;4.348;2023-05-20T04:19:21;5.07;;;2.60;;
17361;SDS011;8798;51.938;4.348;2023-05-20T04:21:53;5.30;;;2.40;;
17361;SDS011;8798;51.938;4.348;2023-05-20T04:24:21;7.87;;;2.63;;
17361;SDS011;8798;51.938;4.348;2023-05-20T04:26:50;6.93;;;2.93;;
17361;SDS011;8798;51.938;4.348;2023-05-20T04:29:18;6.23;;;2.57;;
17361;SDS011;8798;51.938;4.348;2023-05-20T04:31:47;6.03;;;2.90;;
17361;SDS011;8798;51.938;4.348;2023-05-20T04:34:15;6.00;;;2.50;;
17361;SDS011;8798;51.938;4.348;2023-05-20T04:36:45;4.10;;;2.30;;
17361;SDS011;8798;51.938;4.348;2023-05-20T04:39:14;5.60;;;2.40;;
17361;SDS011;8798;51.938;4.348;2023-05-20T04:41:42;6.73;;;2.57;;
17361;SDS011;8798;51.938;4.348;2023-05-20T04:44:09;5.53;;;2.40;;
17361;SDS011;8798;51.938;4.348;2023-05-20T04:46:38;4.80;;;2.40;;
17361;SDS011;8798;51.938;4.348;2023-05-20T04:49:08;5.10;;;2.70;;
17361;SDS011;8798;51.938;4.348;2023-05-20T04:51:36;6.80;;;2.87;;
17361;SDS011;8798;51.938;4.348;2023-05-20T04:54:04;4.57;;;2.63;;
17361;SDS011;8798;51.938;4.348;2023-05-20T04:56:32;4.03;;;2.47;;
17361;SDS011;8798;51.938;4.348;2023-05-20T04:59:01;10.43;;;2.70;;
17361;SDS011;8798;51.938;4.348;2023-05-20T05:01:29;9.03;;;2.87;;
17361;SDS011;8798;51.938;4.348;2023-05-20T05:03:57;6.80;;;3.00;;
17361;SDS011;8798;51.938;4.348;2023-05-20T05:06:26;4.17;;;2.80;;
17361;SDS011;8798;51.938;4.348;2023-05-20T05:08:54;5.87;;;3.00;;
17361;SDS011;8798;51.938;4.348;2023-05-20T05:11:22;6.30;;;2.70;;
17361;SDS011;8798;51.938;4.348;2023-05-20T05:13:49;5.47;;;2.73;;
17361;SDS011;8798;51.938;4.348;2023-05-20T05:16:17;8.83;;;2.70;;
17361;SDS011;8798;51.938;4.348;2023-05-20T05:18:48;4.37;;;2.70;;
17361;SDS011;8798;51.938;4.348;2023-05-20T05:21:19;5.80;;;2.67;;
17361;SDS011;8798;51.938;4.348;2023-05-20T05:23:48;4.73;;;2.77;;
17361;SDS011;8798;51.938;4.348;2023-05-20T05:26:16;6.93;;;2.67;;
17361;SDS011;8798;51.938;4.348;2023-05-20T05:28:44;5.30;;;2.87;;
17361;SDS011;8798;51.938;4.348;2023-05-20T05:31:12;10.03;;;3.17;;
17361;SDS011;8798;51.938;4.348;2023-05-20T05:33:39;6.57;;;3.23;;
17361;SDS011;8798;51.938;4.348;2023-05-20T05:36:07;8.60;;;3.87;;
17361;SDS011;8798;51.938;4.348;2023-05-20T05:38:35;7.10;;;2.70;;
17361;SDS011;8798;51.938;4.348;2023-05-20T05:41:04;6.43;;;3.00;;
17361;SDS011;8798;51.938;4.348;2023-05-20T05:43:32;6.37;;;3.13;;
17361;SDS011;8798;51.938;4.348;2023-05-20T05:46:01;7.67;;;3.13;;
17361;SDS011;8798;51.938;4.348;2023-05-20T05:48:30;5.37;;;2.60;;
17361;SDS011;8798;51.938;4.348;2023-05-20T05:50:58;5.17;;;2.90;;
17361;SDS011;8798;51.938;4.348;2023-05-20T05:53:26;5.87;;;2.70;;
17361;SDS011;8798;51.938;4.348;2023-05-20T05:55:53;5.43;;;3.07;;
17361;SDS011;8798;51.938;4.348;2023-05-20T05:58:23;5.50;;;2.53;;
17361;SDS011;8798;51.938;4.348;2023-05-20T06:00:51;6.27;;;2.83;;
17361;SDS011;8798;51.938;4.348;2023-05-20T06:03:20;5.97;;;2.50;;
17361;SDS011;8798;51.938;4.348;2023-05-20T06:05:48;6.47;;;2.63;;
17361;SDS011;8798;51.938;4.348;2023-05-20T06:08:16;7.07;;;2.90;;
17361;SDS011;8798;51.938;4.348;2023-05-20T06:10:45;5.60;;;2.87;;
17361;SDS011;8798;51.938;4.348;2023-05-20T06:13:15;7.03;;;2.70;;
17361;SDS011;8798;51.938;4.348;2023-05-20T06:15:44;6.27;;;2.90;;
17361;SDS011;8798;51.938;4.348;2023-05-20T06:18:12;5.40;;;2.67;;
17361;SDS011;8798;51.938;4.348;2023-05-20T06:20:40;5.37;;;2.40;;
17361;SDS011;8798;51.938;4.348;2023-05-20T06:23:07;5.83;;;2.30;;
17361;SDS011;8798;51.938;4.348;2023-05-20T06:25:35;7.80;;;2.60;;
17361;SDS011;8798;51.938;4.348;2023-05-20T06:28:03;4.20;;;2.57;;
17361;SDS011;8798;51.938;4.348;2023-05-20T06:30:31;5.30;;;2.77;;
17361;SDS011;8798;51.938;4.348;2023-05-20T06:33:00;8.10;;;2.70;;
17361;SDS011;8798;51.938;4.348;2023-05-20T06:35:28;5.10;;;2.57;;
17361;SDS011;8798;51.938;4.348;2023-05-20T06:37:56;6.17;;;2.47;;
17361;SDS011;8798;51.938;4.348;2023-05-20T06:40:24;4.27;;;2.23;;
17361;SDS011;8798;51.938;4.348;2023-05-20T06:42:52;4.17;;;2.60;;
17361;SDS011;8798;51.938;4.348;2023-05-20T06:45:20;5.63;;;2.40;;
17361;SDS011;8798;51.938;4.348;2023-05-20T06:47:48;5.00;;;2.30;;
17361;SDS011;8798;51.938;4.348;2023-05-20T06:50:17;5.40;;;2.40;;
17361;SDS011;8798;51.938;4.348;2023-05-20T06:52:45;8.67;;;2.33;;
17361;SDS011;8798;51.938;4.348;2023-05-20T06:55:13;4.17;;;2.20;;
17361;SDS011;8798;51.938;4.348;2023-05-20T06:57:41;5.77;;;2.20;;
17361;SDS011;8798;51.938;4.348;2023-05-20T07:00:10;7.30;;;2.50;;
17361;SDS011;8798;51.938;4.348;2023-05-20T07:02:39;5.47;;;2.10;;
17361;SDS011;8798;51.938;4.348;2023-05-20T07:05:07;4.27;;;2.07;;
17361;SDS011;8798;51.938;4.348;2023-05-20T07:07:37;3.60;;;2.37;;
17361;SDS011;8798;51.938;4.348;2023-05-20T07:10:05;4.63;;;2.13;;
17361;SDS011;8798;51.938;4.348;2023-05-20T07:12:34;4.67;;;2.47;;
17361;SDS011;8798;51.938;4.348;2023-05-20T07:15:02;4.60;;;2.10;;
17361;SDS011;8798;51.938;4.348;2023-05-20T07:17:31;4.07;;;2.17;;
17361;SDS011;8798;51.938;4.348;2023-05-20T07:19:59;8.70;;;2.40;;
17361;SDS011;8798;51.938;4.348;2023-05-20T07:22:26;4.87;;;2.17;;
17361;SDS011;8798;51.938;4.348;2023-05-20T07:24:56;5.33;;;2.47;;
17361;SDS011;8798;51.938;4.348;2023-05-20T07:27:24;5.57;;;2.40;;
17361;SDS011;8798;51.938;4.348;2023-05-20T07:29:52;5.27;;;2.10;;
17361;SDS011;8798;51.938;4.348;2023-05-20T07:32:20;6.37;;;2.47;;
17361;SDS011;8798;51.938;4.348;2023-05-20T07:34:51;4.10;;;2.13;;
17361;SDS011;8798;51.938;4.348;2023-05-20T07:37:20;5.73;;;2.03;;
17361;SDS011;8798;51.938;4.348;2023-05-20T07:39:48;7.43;;;2.40;;
17361;SDS011;8798;51.938;4.348;2023-05-20T07:42:17;3.53;;;2.23;;
17361;SDS011;8798;51.938;4.348;2023-05-20T07:44:45;3.63;;;2.30;;
17361;SDS011;8798;51.938;4.348;2023-05-20T07:47:13;5.73;;;2.17;;
17361;SDS011;8798;51.938;4.348;2023-05-20T07:49:41;4.77;;;2.40;;
17361;SDS011;8798;51.938;4.348;2023-05-20T07:52:09;4.80;;;2.30;;
17361;SDS011;8798;51.938;4.348;2023-05-20T07:54:37;4.40;;;2.20;;
17361;SDS011;8798;51.938;4.348;2023-05-20T07:57:05;3.80;;;2.10;;
17361;SDS011;8798;51.938;4.348;2023-05-20T07:59:34;6.53;;;2.30;;
17361;SDS011;8798;51.938;4.348;2023-05-20T08:02:02;4.17;;;1.83;;
17361;SDS011;8798;51.938;4.348;2023-05-20T08:04:31;5.67;;;2.57;;
17361;SDS011;8798;51.938;4.348;2023-05-20T08:07:00;2.93;;;1.87;;
17361;SDS011;8798;51.938;4.348;2023-05-20T08:09:32;4.60;;;1.90;;
17361;SDS011;8798;51.938;4.348;2023-05-20T08:12:00;8.53;;;2.20;;
17361;SDS011;8798;51.938;4.348;2023-05-20T08:14:28;4.10;;;2.03;;
17361;SDS011;8798;51.938;4.348;2023-05-20T08:16:58;4.37;;;1.90;;
17361;SDS011;8798;51.938;4.348;2023-05-20T08:19:26;3.17;;;1.83;;
17361;SDS011;8798;51.938;4.348;2023-05-20T08:21:54;4.03;;;2.00;;
17361;SDS011;8798;51.938;4.348;2023-05-20T08:24:22;5.10;;;2.00;;
17361;SDS011;8798;51.938;4.348;2023-05-20T08:26:49;5.53;;;2.30;;
17361;SDS011;8798;51.938;4.348;2023-05-20T08:29:17;4.20;;;1.90;;
17361;SDS011;8798;51.938;4.348;2023-05-20T08:31:45;3.07;;;1.70;;
17361;SDS011;8798;51.938;4.348;2023-05-20T08:34:15;5.00;;;1.93;;
17361;SDS011;8798;51.938;4.348;2023-05-20T08:36:43;4.77;;;1.80;;
17361;SDS011;8798;51.938;4.348;2023-05-20T08:39:11;4.70;;;1.70;;
17361;SDS011;8798;51.938;4.348;2023-05-20T08:41:39;3.20;;;1.70;;
17361;SDS011;8798;51.938;4.348;2023-05-20T08:44:06;3.07;;;1.93;;
17361;SDS011;8798;51.938;4.348;2023-05-20T08:46:37;4.20;;;1.93;;
17361;SDS011;8798;51.938;4.348;2023-05-20T08:49:06;3.87;;;2.23;;
17361;SDS011;8798;51.938;4.348;2023-05-20T08:51:36;4.97;;;1.87;;
17361;SDS011;8798;51.938;4.348;2023-05-20T08:54:05;2.63;;;1.90;;
17361;SDS011;8798;51.938;4.348;2023-05-20T08:56:35;7.20;;;2.10;;
17361;SDS011;8798;51.938;4.348;2023-05-20T08:59:04;6.40;;;1.80;;
17361;SDS011;8798;51.938;4.348;2023-05-20T09:01:33;3.97;;;1.77;;
17361;SDS011;8798;51.938;4.348;2023-05-20T09:04:06;6.77;;;1.40;;
17361;SDS011;8798;51.938;4.348;2023-05-20T09:06:42;4.07;;;1.60;;
17361;SDS011;8798;51.938;4.348;2023-05-20T09:09:11;3.47;;;1.60;;
17361;SDS011;8798;51.938;4.348;2023-05-20T09:11:39;4.13;;;1.90;;
17361;SDS011;8798;51.938;4.348;2023-05-20T09:14:07;2.83;;;1.73;;
17361;SDS011;8798;51.938;4.348;2023-05-20T09:16:35;2.87;;;1.60;;
17361;SDS011;8798;51.938;4.348;2023-05-20T09:19:09;3.70;;;1.80;;
17361;SDS011;8798;51.938;4.348;2023-05-20T09:21:39;1.30;;;1.20;;
17361;SDS011;8798;51.938;4.348;2023-05-20T09:24:09;3.60;;;1.70;;
17361;SDS011;8798;51.938;4.348;2023-05-20T09:26:37;7.00;;;1.90;;
17361;SDS011;8798;51.938;4.348;2023-05-20T09:29:05;3.37;;;1.50;;
17361;SDS011;8798;51.938;4.348;2023-05-20T09:31:34;5.80;;;1.57;;
17361;SDS011;8798;51.938;4.348;2023-05-20T09:34:04;3.67;;;1.50;;
17361;SDS011;8798;51.938;4.348;2023-05-20T09:36:33;4.23;;;1.70;;
17361;SDS011;8798;51.938;4.348;2023-05-20T09:39:02;6.73;;;1.90;;
17361;SDS011;8798;51.938;4.348;2023-05-20T09:41:37;5.87;;;1.70;;
17361;SDS011;8798;51.938;4.348;2023-05-20T09:44:05;3.03;;;1.70;;
17361;SDS011;8798;51.938;4.348;2023-05-20T09:46:34;2.27;;;1.33;;
17361;SDS011;8798;51.938;4.348;2023-05-20T09:49:03;3.37;;;1.50;;
17361;SDS011;8798;51.938;4.348;2023-05-20T09:51:33;1.30;;;1.00;;
17361;SDS011;8798;51.938;4.348;2023-05-20T09:54:01;2.93;;;1.37;;
17361;SDS011;8798;51.938;4.348;2023-05-20T09:56:35;2.33;;;1.30;;
17361;SDS011;8798;51.938;4.348;2023-05-20T09:59:03;3.93;;;1.20;;
17361;SDS011;8798;51.938;4.348;2023-05-20T10:01:32;4.70;;;1.50;;
17361;SDS011;8798;51.938;4.348;2023-05-20T10:03:59;3.50;;;1.10;;
17361;SDS011;8798;51.938;4.348;2023-05-20T10:06:41;3.77;;;1.20;;
17361;SDS011;8798;51.938;4.348;2023-05-20T10:09:31;3.50;;;1.53;;
17361;SDS011;8798;51.938;4.348;2023-05-20T10:12:13;2.40;;;1.27;;
17361;SDS011;8798;51.938;4.348;2023-05-20T10:14:50;6.43;;;1.70;;
17361;SDS011;8798;51.938;4.348;2023-05-20T10:17:27;4.90;;;1.27;;
17361;SDS011;8798;51.938;4.348;2023-05-20T10:20:05;4.30;;;1.23;;
17361;SDS011;8798;51.938;4.348;2023-05-20T10:22:34;3.37;;;1.53;;
17361;SDS011;8798;51.938;4.348;2023-05-20T10:25:03;4.10;;;1.50;;
17361;SDS011;8798;51.938;4.348;2023-05-20T10:27:43;5.50;;;1.30;;
17361;SDS011;8798;51.938;4.348;2023-05-20T10:30:15;8.37;;;1.50;;
17361;SDS011;8798;51.938;4.348;2023-05-20T10:32:51;4.50;;;1.10;;
17361;SDS011;8798;51.938;4.348;2023-05-20T10:35:22;1.37;;;0.97;;
17361;SDS011;8798;51.938;4.348;2023-05-20T10:37:53;3.43;;;0.87;;
17361;SDS011;8798;51.938;4.348;2023-05-20T10:40:32;5.90;;;1.20;;
17361;SDS011;8798;51.938;4.348;2023-05-20T10:43:08;1.97;;;1.03;;
17361;SDS011;8798;51.938;4.348;2023-05-20T10:45:46;2.30;;;1.13;;
17361;SDS011;8798;51.938;4.348;2023-05-20T10:48:19;1.40;;;1.10;;
17361;SDS011;8798;51.938;4.348;2023-05-20T10:50:49;4.27;;;1.20;;
17361;SDS011;8798;51.938;4.348;2023-05-20T10:53:21;1.80;;;1.30;;
17361;SDS011;8798;51.938;4.348;2023-05-20T10:55:59;2.47;;;1.20;;
17361;SDS011;8798;51.938;4.348;2023-05-20T10:58:35;9.50;;;1.30;;
17361;SDS011;8798;51.938;4.348;2023-05-20T11:01:04;3.43;;;1.27;;
17361;SDS011;8798;51.938;4.348;2023-05-20T11:03:32;6.23;;;1.40;;
17361;SDS011;8798;51.938;4.348;2023-05-20T11:06:09;2.77;;;1.43;;
17361;SDS011;8798;51.938;4.348;2023-05-20T11:08:37;3.00;;;1.20;;
17361;SDS011;8798;51.938;4.348;2023-05-20T11:11:06;1.90;;;1.30;;
17361;SDS011;8798;51.938;4.348;2023-05-20T11:13:35;5.47;;;1.20;;
17361;SDS011;8798;51.938;4.348;2023-05-20T11:16:03;2.60;;;1.33;;
17361;SDS011;8798;51.938;4.348;2023-05-20T11:18:32;3.40;;;1.30;;
17361;SDS011;8798;51.938;4.348;2023-05-20T11:21:00;4.30;;;1.37;;
17361;SDS011;8798;51.938;4.348;2023-05-20T11:23:28;3.30;;;1.23;;
17361;SDS011;8798;51.938;4.348;2023-05-20T11:25:57;1.40;;;1.00;;
17361;SDS011;8798;51.938;4.348;2023-05-20T11:28:25;1.80;;;1.40;;
17361;SDS011;8798;51.938;4.348;2023-05-20T11:30:54;4.57;;;1.20;;
17361;SDS011;8798;51.938;4.348;2023-05-20T11:33:24;3.30;;;1.17;;
17361;SDS011;8798;51.938;4.348;2023-05-20T11:35:52;2.80;;;1.70;;
17361;SDS011;8798;51.938;4.348;2023-05-20T11:38:20;3.40;;;1.50;;
17361;SDS011;8798;51.938;4.348;2023-05-20T11:40:50;3.97;;;1.90;;
17361;SDS011;8798;51.938;4.348;2023-05-20T11:43:20;4.57;;;1.40;;
17361;SDS011;8798;51.938;4.348;2023-05-20T11:45:51;3.80;;;1.50;;
17361;SDS011;8798;51.938;4.348;2023-05-20T11:48:22;4.90;;;1.50;;
17361;SDS011;8798;51.938;4.348;2023-05-20T11:50:51;3.27;;;1.40;;
17361;SDS011;8798;51.938;4.348;2023-05-20T11:53:20;1.90;;;1.27;;
17361;SDS011;8798;51.938;4.348;2023-05-20T11:55:49;4.33;;;1.60;;
17361;SDS011;8798;51.938;4.348;2023-05-20T11:58:19;10.07;;;1.60;;
17361;SDS011;8798;51.938;4.348;2023-05-20T12:00:48;4.00;;;1.63;;
17361;SDS011;8798;51.938;4.348;2023-05-20T12:03:23;7.90;;;1.80;;
17361;SDS011;8798;51.938;4.348;2023-05-20T12:05:52;4.10;;;1.50;;
17361;SDS011;8798;51.938;4.348;2023-05-20T12:08:20;4.60;;;1.30;;
17361;SDS011;8798;51.938;4.348;2023-05-20T12:10:48;6.37;;;1.57;;
17361;SDS011;8798;51.938;4.348;2023-05-20T12:13:16;2.90;;;1.30;;
17361;SDS011;8798;51.938;4.348;2023-05-20T12:15:44;1.90;;;1.43;;
17361;SDS011;8798;51.938;4.348;2023-05-20T12:18:12;3.93;;;1.10;;
17361;SDS011;8798;51.938;4.348;2023-05-20T12:20:41;4.73;;;1.60;;
17361;SDS011;8798;51.938;4.348;2023-05-20T12:23:09;2.78;;;1.55;;
17361;SDS011;8798;51.938;4.348;2023-05-20T12:25:37;2.00;;;1.37;;
17361;SDS011;8798;51.938;4.348;2023-05-20T12:28:05;2.83;;;1.40;;
17361;SDS011;8798;51.938;4.348;2023-05-20T12:30:33;2.53;;;1.60;;
17361;SDS011;8798;51.938;4.348;2023-05-20T12:33:01;2.70;;;1.30;;
17361;SDS011;8798;51.938;4.348;2023-05-20T12:35:35;3.42;;;1.30;;
17361;SDS011;8798;51.938;4.348;2023-05-20T12:38:05;3.30;;;1.63;;
17361;SDS011;8798;51.938;4.348;2023-05-20T12:40:33;3.38;;;1.30;;
17361;SDS011;8798;51.938;4.348;2023-05-20T12:43:03;3.15;;;1.48;;
17361;SDS011;8798;51.938;4.348;2023-05-20T12:45:31;6.20;;;1.47;;
17361;SDS011;8798;51.938;4.348;2023-05-20T12:47:59;2.78;;;1.20;;
17361;SDS011;8798;51.938;4.348;2023-05-20T12:50:27;3.15;;;1.20;;
17361;SDS011;8798;51.938;4.348;2023-05-20T12:52:55;2.15;;;1.42;;
17361;SDS011;8798;51.938;4.348;2023-05-20T12:55:24;5.00;;;1.40;;
17361;SDS011;8798;51.938;4.348;2023-05-20T12:57:53;12.13;;;1.50;;
17361;SDS011;8798;51.938;4.348;2023-05-20T13:00:21;2.00;;;1.30;;
17361;SDS011;8798;51.938;4.348;2023-05-20T13:02:49;2.17;;;1.20;;
17361;SDS011;8798;51.938;4.348;2023-05-20T13:05:17;2.70;;;1.35;;
17361;SDS011;8798;51.938;4.348;2023-05-20T13:07:45;1.85;;;1.00;;
17361;SDS011;8798;51.938;4.348;2023-05-20T13:10:14;3.55;;;1.27;;
17361;SDS011;8798;51.938;4.348;2023-05-20T13:12:44;3.53;;;1.67;;
17361;SDS011;8798;51.938;4.348;2023-05-20T13:15:12;1.83;;;1.20;;
17361;SDS011;8798;51.938;4.348;2023-05-20T13:17:40;2.53;;;1.50;;
17361;SDS011;8798;51.938;4.348;2023-05-20T13:20:09;1.63;;;1.10;;
17361;SDS011;8798;51.938;4.348;2023-05-20T13:22:37;1.35;;;1.20;;
17361;SDS011;8798;51.938;4.348;2023-05-20T13:25:05;2.75;;;1.42;;
17361;SDS011;8798;51.938;4.348;2023-05-20T13:27:34;6.47;;;1.40;;
17361;SDS011;8798;51.938;4.348;2023-05-20T13:30:04;3.92;;;1.40;;
17361;SDS011;8798;51.938;4.348;2023-05-20T13:32:32;5.10;;;1.27;;
17361;SDS011;8798;51.938;4.348;2023-05-20T13:35:00;3.63;;;1.42;;
17361;SDS011;8798;51.938;4.348;2023-05-20T13:37:28;4.88;;;1.42;;
17361;SDS011;8798;51.938;4.348;2023-05-20T13:39:56;3.63;;;1.40;;
17361;SDS011;8798;51.938;4.348;2023-05-20T13:42:24;7.13;;;1.40;;
17361;SDS011;8798;51.938;4.348;2023-05-20T13:44:52;3.20;;;1.17;;
17361;SDS011;8798;51.938;4.348;2023-05-20T13:47:21;1.83;;;1.30;;
17361;SDS011;8798;51.938;4.348;2023-05-20T13:49:48;5.65;;;1.50;;
17361;SDS011;8798;51.938;4.348;2023-05-20T13:52:16;3.33;;;1.40;;
17361;SDS011;8798;51.938;4.348;2023-05-20T13:54:44;2.25;;;1.25;;
17361;SDS011;8798;51.938;4.348;2023-05-20T13:57:13;4.70;;;1.55;;
17361;SDS011;8798;51.938;4.348;2023-05-20T13:59:41;2.17;;;1.10;;
17361;SDS011;8798;51.938;4.348;2023-05-20T14:02:09;2.95;;;1.30;;
17361;SDS011;8798;51.938;4.348;2023-05-20T14:04:39;4.30;;;1.33;;
17361;SDS011;8798;51.938;4.348;2023-05-20T14:07:10;2.15;;;1.05;;
17361;SDS011;8798;51.938;4.348;2023-05-20T14:09:38;2.67;;;1.10;;
17361;SDS011;8798;51.938;4.348;2023-05-20T14:12:06;2.90;;;1.33;;
17361;SDS011;8798;51.938;4.348;2023-05-20T14:14:34;2.90;;;1.50;;
17361;SDS011;8798;51.938;4.348;2023-05-20T14:17:02;3.00;;;1.25;;
17361;SDS011;8798;51.938;4.348;2023-05-20T14:19:30;1.85;;;1.15;;
17361;SDS011;8798;51.938;4.348;2023-05-20T14:21:59;2.53;;;1.17;;
17361;SDS011;8798;51.938;4.348;2023-05-20T14:24:28;1.27;;;0.80;;
17361;SDS011;8798;51.938;4.348;2023-05-20T14:26:56;3.28;;;1.20;;
17361;SDS011;8798;51.938;4.348;2023-05-20T14:29:24;1.67;;;1.20;;
17361;SDS011;8798;51.938;4.348;2023-05-20T14:31:51;3.13;;;1.50;;
17361;SDS011;8798;51.938;4.348;2023-05-20T14:34:23;2.47;;;1.38;;
17361;SDS011;8798;51.938;4.348;2023-05-20T14:36:50;4.13;;;1.40;;
17361;SDS011;8798;51.938;4.348;2023-05-20T14:39:20;2.50;;;1.20;;
17361;SDS011;8798;51.938;4.348;2023-05-20T14:41:47;5.15;;;1.30;;
17361;SDS011;8798;51.938;4.348;2023-05-20T14:44:15;3.00;;;1.25;;
17361;SDS011;8798;51.938;4.348;2023-05-20T14:46:43;1.83;;;1.33;;
17361;SDS011;8798;51.938;4.348;2023-05-20T14:49:11;1.33;;;1.15;;
17361;SDS011;8798;51.938;4.348;2023-05-20T14:51:39;3.10;;;1.30;;
17361;SDS011;8798;51.938;4.348;2023-05-20T14:54:07;3.30;;;1.20;;
17361;SDS011;8798;51.938;4.348;2023-05-20T14:56:37;2.70;;;1.20;;
17361;SDS011;8798;51.938;4.348;2023-05-20T14:59:04;2.95;;;1.20;;
17361;SDS011;8798;51.938;4.348;2023-05-20T15:01:32;1.52;;;1.35;;
17361;SDS011;8798;51.938;4.348;2023-05-20T15:04:01;5.18;;;1.25;;
17361;SDS011;8798;51.938;4.348;2023-05-20T15:06:29;1.80;;;1.20;;
17361;SDS011;8798;51.938;4.348;2023-05-20T15:09:00;1.83;;;1.25;;
17361;SDS011;8798;51.938;4.348;2023-05-20T15:11:28;3.40;;;1.50;;